createdAt,value
2019-02-19T00:00:38.862Z,29.48
2019-02-19T00:03:07.274Z,31.35
2019-02-19T00:05:35.697Z,29.32
2019-02-19T00:08:04.149Z,35.98
2019-02-19T00:10:32.545Z,32.33
2019-02-19T00:13:00.956Z,34.43
2019-02-19T00:15:29.428Z,37.50
2019-02-19T00:17:57.832Z,43.73
2019-02-19T00:20:26.242Z,33.67
2019-02-19T00:22:54.645Z,36.42
2019-02-19T00:25:23.047Z,43.10
2019-02-19T00:27:51.484Z,41.48
2019-02-19T00:30:19.880Z,40.17
2019-02-19T00:32:48.284Z,38.67
2019-02-19T00:35:16.717Z,40.25
2019-02-19T00:37:45.120Z,43.25
2019-02-19T00:40:13.548Z,45.63
2019-02-19T00:42:42.016Z,41.63
2019-02-19T00:45:16.460Z,42.43
2019-02-19T00:47:40.508Z,49.98
2019-02-19T00:50:08.917Z,43.25
2019-02-19T00:52:37.412Z,46.02
2019-02-19T00:55:06.355Z,49.40
2019-02-19T00:57:34.757Z,46.25
2019-02-19T01:00:03.629Z,50.08
2019-02-19T01:02:32.024Z,43.80
2019-02-19T01:05:00.460Z,50.12
2019-02-19T01:07:28.863Z,51.70
2019-02-19T01:09:57.264Z,56.13
2019-02-19T01:12:25.676Z,58.15
2019-02-19T01:14:54.140Z,48.05
2019-02-19T01:17:22.593Z,55.23
2019-02-19T01:19:50.969Z,55.83
2019-02-19T01:22:19.476Z,53.90
2019-02-19T01:24:47.956Z,53.65
2019-02-19T01:27:16.469Z,53.80
2019-02-19T01:29:44.903Z,54.90
2019-02-19T01:32:13.369Z,54.08
2019-02-19T01:34:41.768Z,55.00
2019-02-19T01:37:10.180Z,53.95
2019-02-19T01:39:38.589Z,56.58
2019-02-19T01:42:07.091Z,55.28
2019-02-19T01:44:35.481Z,56.83
2019-02-19T01:47:03.894Z,60.33
2019-02-19T01:49:32.307Z,61.08
2019-02-19T01:52:00.706Z,61.18
2019-02-19T01:54:29.145Z,66.37
2019-02-19T01:56:57.546Z,64.70
2019-02-19T01:59:25.932Z,63.70
2019-02-19T02:01:54.340Z,68.42
2019-02-19T02:04:22.740Z,67.87
2019-02-19T02:06:51.172Z,76.12
2019-02-19T02:09:19.648Z,75.72
2019-02-19T02:11:48.054Z,74.32
2019-02-19T02:14:16.466Z,72.35
2019-02-19T02:16:44.864Z,65.85
2019-02-19T02:19:13.313Z,69.75
2019-02-19T02:21:41.718Z,74.00
2019-02-19T02:24:10.092Z,68.95
2019-02-19T02:26:38.497Z,79.75
2019-02-19T02:29:06.904Z,80.55
2019-02-19T02:31:35.349Z,76.05
2019-02-19T02:34:03.751Z,78.37
2019-02-19T02:36:32.279Z,79.62
2019-02-19T02:39:00.853Z,78.22
2019-02-19T02:41:29.319Z,86.02
2019-02-19T02:43:57.779Z,82.27
2019-02-19T02:46:26.186Z,90.55
2019-02-19T02:48:54.584Z,78.17
2019-02-19T02:51:22.993Z,91.40
2019-02-19T02:53:51.412Z,86.82
2019-02-19T02:56:19.878Z,89.90
2019-02-19T02:58:48.265Z,95.55
2019-02-19T03:01:16.684Z,93.50
2019-02-19T03:03:45.077Z,92.42
2019-02-19T03:06:17.933Z,93.95
2019-02-19T03:08:46.445Z,89.47
2019-02-19T03:11:14.849Z,91.08
2019-02-19T03:13:43.269Z,100.00
2019-02-19T03:16:11.753Z,104.47
2019-02-19T03:18:40.160Z,99.50
2019-02-19T03:21:08.593Z,111.88
2019-02-19T03:23:37.004Z,106.83
2019-02-19T03:26:05.409Z,112.72
2019-02-19T03:28:33.826Z,105.75
2019-02-19T03:31:02.305Z,107.58
2019-02-19T03:33:30.738Z,104.85
2019-02-19T03:35:59.144Z,109.00
2019-02-19T03:38:27.548Z,120.10
2019-02-19T03:40:55.958Z,118.75
2019-02-19T03:43:24.356Z,124.27
2019-02-19T03:45:52.792Z,122.55
2019-02-19T03:48:21.204Z,134.72
2019-02-19T03:50:49.609Z,145.92
2019-02-19T03:53:18.019Z,135.25
2019-02-19T03:55:46.492Z,146.13
2019-02-19T03:58:14.920Z,144.30
2019-02-19T04:00:43.329Z,149.87
2019-02-19T04:03:11.732Z,148.25
2019-02-19T04:05:40.144Z,154.72
2019-02-19T04:08:08.553Z,161.22
2019-02-19T04:10:37.054Z,154.95
2019-02-19T04:13:05.466Z,159.05
2019-02-19T04:15:34.040Z,168.45
2019-02-19T04:18:02.500Z,188.18
2019-02-19T04:20:30.952Z,192.07
2019-02-19T04:22:59.397Z,188.87
2019-02-19T04:25:27.796Z,202.87
2019-02-19T04:27:56.199Z,193.07
2019-02-19T04:30:24.665Z,195.12
2019-02-19T04:32:53.065Z,185.97
2019-02-19T04:35:21.505Z,210.60
2019-02-19T04:37:49.905Z,196.15
2019-02-19T04:40:18.308Z,208.23
2019-02-19T04:42:46.717Z,238.30
2019-02-19T04:45:15.130Z,221.60
2019-02-19T04:47:43.596Z,215.18
2019-02-19T04:50:12.053Z,210.95
2019-02-19T04:52:40.502Z,216.80
2019-02-19T04:55:09.036Z,218.88
2019-02-19T04:57:37.439Z,225.85
2019-02-19T05:00:09.440Z,251.02
2019-02-19T05:02:38.141Z,238.85
2019-02-19T05:05:07.938Z,241.60
2019-02-19T05:07:37.006Z,249.37
2019-02-19T05:10:08.373Z,240.05
2019-02-19T05:12:36.805Z,241.55
2019-02-19T05:15:08.521Z,256.17
2019-02-19T05:17:39.078Z,275.55
2019-02-19T05:20:08.984Z,262.25
2019-02-19T05:22:37.392Z,261.75
2019-02-19T05:25:07.373Z,282.73
2019-02-19T05:27:35.812Z,297.27
2019-02-19T05:30:06.052Z,286.57
2019-02-19T05:32:34.460Z,272.13
2019-02-19T05:35:03.090Z,305.02
2019-02-19T05:37:31.862Z,310.88
2019-02-19T05:40:00.264Z,303.75
2019-02-19T05:42:29.857Z,302.10
2019-02-19T05:44:58.253Z,292.98
2019-02-19T05:47:26.975Z,289.57
2019-02-19T05:49:55.401Z,254.72
2019-02-19T05:52:23.813Z,303.65
2019-02-19T05:54:54.004Z,325.82
2019-02-19T05:57:22.408Z,321.07
2019-02-19T05:59:51.212Z,295.67
2019-02-19T06:02:19.749Z,346.57
2019-02-19T06:04:48.157Z,328.30
2019-02-19T06:07:18.961Z,313.75
2019-02-19T06:09:47.761Z,291.47
2019-02-19T06:12:16.180Z,300.98
2019-02-19T06:14:44.652Z,288.30
2019-02-19T06:17:13.357Z,298.45
2019-02-19T06:19:43.140Z,282.10
2019-02-19T06:22:12.163Z,287.60
2019-02-19T06:24:40.632Z,313.85
2019-02-19T06:27:09.453Z,307.52
2019-02-19T06:29:40.356Z,300.13
2019-02-19T06:32:09.160Z,299.12
2019-02-19T06:34:37.560Z,309.12
2019-02-19T06:37:05.968Z,305.55
2019-02-19T06:39:34.381Z,296.35
2019-02-19T06:42:03.148Z,271.02
2019-02-19T06:44:31.576Z,268.00
2019-02-19T06:47:06.644Z,282.57
2019-02-19T06:49:31.307Z,262.00
2019-02-19T06:51:59.709Z,276.07
2019-02-19T06:54:28.113Z,264.55
2019-02-19T06:56:56.628Z,302.93
2019-02-19T06:59:25.165Z,291.12
2019-02-19T07:02:13.125Z,273.68
2019-02-19T07:04:43.186Z,238.12
2019-02-19T07:07:11.594Z,281.68
2019-02-19T07:09:40.953Z,256.43
2019-02-19T07:12:09.929Z,268.67
2019-02-19T07:14:38.705Z,261.65
2019-02-19T07:17:15.283Z,266.88
2019-02-19T07:19:38.228Z,266.75
2019-02-19T07:22:06.641Z,238.77
2019-02-19T07:24:35.045Z,210.95
2019-02-19T07:27:03.471Z,211.05
2019-02-19T07:29:31.875Z,209.32
2019-02-19T07:32:03.377Z,216.05
2019-02-19T07:34:33.960Z,209.67
2019-02-19T07:37:04.452Z,218.20
2019-02-19T07:39:32.906Z,231.00
2019-02-19T07:42:01.500Z,198.55
2019-02-19T07:44:29.900Z,218.27
2019-02-19T07:46:58.596Z,199.07
2019-02-19T07:49:26.997Z,197.35
2019-02-19T07:51:55.429Z,192.35
2019-02-19T07:54:23.845Z,205.15
2019-02-19T07:56:52.471Z,190.77
2019-02-19T07:59:20.882Z,204.15
2019-02-19T08:01:49.319Z,210.08
2019-02-19T08:04:17.847Z,190.18
2019-02-19T08:06:46.246Z,214.72
2019-02-19T08:09:14.648Z,182.90
2019-02-19T08:11:43.289Z,181.70
2019-02-19T08:14:12.657Z,205.47
2019-02-19T08:16:41.362Z,180.60
2019-02-19T08:19:09.771Z,211.72
2019-02-19T08:21:38.174Z,204.25
2019-02-19T08:24:06.588Z,221.30
2019-02-19T08:26:35.396Z,233.00
2019-02-19T08:29:13.221Z,207.85
2019-02-19T08:31:34.018Z,195.43
2019-02-19T08:34:02.438Z,196.50
2019-02-19T08:36:31.815Z,181.87
2019-02-19T08:39:00.214Z,195.75
2019-02-19T08:41:29.242Z,183.62
2019-02-19T08:43:57.950Z,190.80
2019-02-19T08:46:26.352Z,187.85
2019-02-19T08:48:54.911Z,174.30
2019-02-19T08:51:23.313Z,182.05
2019-02-19T08:53:52.332Z,178.42
2019-02-19T08:56:20.785Z,182.70
2019-02-19T08:58:49.248Z,181.30
2019-02-19T09:01:17.716Z,179.75
2019-02-19T09:03:46.468Z,188.95
2019-02-19T09:06:14.887Z,176.55
2019-02-19T09:08:43.289Z,169.80
2019-02-19T09:11:11.696Z,185.20
2019-02-19T09:13:40.114Z,164.67
2019-02-19T09:16:09.521Z,160.55
2019-02-19T09:18:38.609Z,173.02
2019-02-19T09:21:07.101Z,166.68
2019-02-19T09:23:35.488Z,161.20
2019-02-19T09:26:04.269Z,159.43
2019-02-19T09:28:33.657Z,155.03
2019-02-19T09:31:02.090Z,164.80
2019-02-19T09:33:30.492Z,158.47
2019-02-19T09:35:58.899Z,135.68
2019-02-19T09:38:27.312Z,152.43
2019-02-19T09:40:55.784Z,169.97
2019-02-19T09:43:24.188Z,154.45
2019-02-19T09:45:52.635Z,141.07
2019-02-19T09:48:21.028Z,133.25
2019-02-19T09:50:49.436Z,142.30
2019-02-19T09:53:17.850Z,150.50
2019-02-19T09:55:46.294Z,143.20
2019-02-19T09:58:14.696Z,140.92
2019-02-19T10:00:43.200Z,152.22
2019-02-19T10:03:11.681Z,148.70
2019-02-19T10:05:40.091Z,152.25
2019-02-19T10:08:08.497Z,143.40
2019-02-19T10:10:36.909Z,139.37
2019-02-19T10:13:05.353Z,133.97
2019-02-19T10:15:33.761Z,139.35
2019-02-19T10:18:09.967Z,141.37
2019-02-19T10:20:32.235Z,128.85
2019-02-19T10:23:00.689Z,133.00
2019-02-19T10:25:29.125Z,149.18
2019-02-19T10:27:57.604Z,137.30
2019-02-19T10:30:26.004Z,131.25
2019-02-19T10:32:54.411Z,128.42
2019-02-19T10:35:22.818Z,129.82
2019-02-19T10:37:51.771Z,127.15
2019-02-19T10:40:21.092Z,122.65
2019-02-19T10:42:49.497Z,114.00
2019-02-19T10:45:24.994Z,122.40
2019-02-19T10:47:53.389Z,117.50
2019-02-19T10:50:21.821Z,135.97
2019-02-19T10:52:51.702Z,109.10
2019-02-19T10:55:20.405Z,131.45
2019-02-19T10:57:48.816Z,120.95
2019-02-19T11:00:19.320Z,121.60
2019-02-19T11:02:47.754Z,125.47
2019-02-19T11:05:16.228Z,118.77
2019-02-19T11:07:44.632Z,126.95
2019-02-19T11:10:14.692Z,107.22
2019-02-19T11:12:43.104Z,104.90
2019-02-19T11:15:12.970Z,103.85
2019-02-19T11:17:41.408Z,115.62
2019-02-19T11:20:12.152Z,102.72
2019-02-19T11:22:40.571Z,100.40
2019-02-19T11:25:11.501Z,104.58
2019-02-19T11:27:39.972Z,107.00
2019-02-19T11:30:20.425Z,98.40
2019-02-19T11:32:49.165Z,110.25
2019-02-19T11:35:17.568Z,98.78
2019-02-19T11:37:45.974Z,97.42
2019-02-19T11:40:14.844Z,97.33
2019-02-19T11:42:43.289Z,114.67
2019-02-19T11:45:14.200Z,121.42
2019-02-19T11:47:42.592Z,99.55
2019-02-19T11:50:12.567Z,102.45
2019-02-19T11:52:41.042Z,100.45
2019-02-19T11:55:11.996Z,98.85
2019-02-19T11:57:40.440Z,95.97
2019-02-19T12:00:13.674Z,97.27
2019-02-19T12:02:42.077Z,96.35
2019-02-19T12:05:10.480Z,96.12
2019-02-19T12:07:38.890Z,103.38
2019-02-19T12:10:08.844Z,95.75
2019-02-19T12:12:37.251Z,97.62
2019-02-19T12:15:08.688Z,100.02
2019-02-19T12:17:37.090Z,93.35
2019-02-19T12:20:07.729Z,99.60
2019-02-19T12:22:36.233Z,96.35
2019-02-19T12:25:05.969Z,93.87
2019-02-19T12:27:34.370Z,98.20
2019-02-19T12:30:03.041Z,106.70
2019-02-19T12:32:31.525Z,103.58
2019-02-19T12:34:59.949Z,98.17
2019-02-19T12:37:28.370Z,96.57
2019-02-19T12:39:56.818Z,91.92
2019-02-19T12:42:25.234Z,101.82
2019-02-19T12:44:53.640Z,94.00
2019-02-19T12:47:22.069Z,98.80
2019-02-19T12:49:50.612Z,99.25
2019-02-19T12:52:19.100Z,96.80
2019-02-19T12:54:47.514Z,102.85
2019-02-19T12:57:15.917Z,106.07
2019-02-19T12:59:44.357Z,101.78
2019-02-19T13:02:12.788Z,95.05
2019-02-19T13:04:41.187Z,97.53
2019-02-19T13:07:09.593Z,106.20
2019-02-19T13:09:38.001Z,94.72
2019-02-19T13:12:06.425Z,97.47
2019-02-19T13:14:34.870Z,93.80
2019-02-19T13:17:03.276Z,96.60
2019-02-19T13:19:32.124Z,93.90
2019-02-19T13:22:00.593Z,95.15
2019-02-19T13:24:29.032Z,105.87
2019-02-19T13:26:57.441Z,93.60
2019-02-19T13:29:25.843Z,95.47
2019-02-19T13:31:54.245Z,101.82
2019-02-19T13:34:22.666Z,93.62
2019-02-19T13:36:51.097Z,88.30
2019-02-19T13:39:19.557Z,91.05
2019-02-19T13:41:48.024Z,87.90
2019-02-19T13:44:16.429Z,93.17
2019-02-19T13:46:44.848Z,86.35
2019-02-19T13:49:13.327Z,92.97
2019-02-19T13:51:41.749Z,90.97
2019-02-19T13:54:11.796Z,104.25
2019-02-19T13:56:40.200Z,95.60
2019-02-19T13:59:08.600Z,101.78
2019-02-19T14:01:37.100Z,93.22
2019-02-19T14:04:05.506Z,99.52
2019-02-19T14:06:33.901Z,93.75
2019-02-19T14:09:02.384Z,90.92
2019-02-19T14:11:30.852Z,84.32
2019-02-19T14:14:00.916Z,85.38
2019-02-19T14:16:30.960Z,92.02
2019-02-19T14:19:01.001Z,90.15
2019-02-19T14:21:45.934Z,95.32
2019-02-19T14:24:31.312Z,87.78
2019-02-19T14:27:07.316Z,85.03
2019-02-19T14:29:52.444Z,88.67
2019-02-19T14:32:22.485Z,93.25
2019-02-19T14:35:08.850Z,88.75
2019-02-19T14:37:55.072Z,85.55
2019-02-19T14:40:40.180Z,91.02
2019-02-19T14:43:16.444Z,86.87
2019-02-19T14:45:52.367Z,84.97
2019-02-19T14:48:22.398Z,81.37
2019-02-19T14:51:10.504Z,88.50
2019-02-19T14:53:43.272Z,88.92
2019-02-19T14:56:13.306Z,88.45
2019-02-19T14:58:46.292Z,87.50
2019-02-19T15:01:32.708Z,86.05
2019-02-19T15:04:11.617Z,86.25
2019-02-19T15:06:56.708Z,90.07
2019-02-19T15:09:29.577Z,87.27
2019-02-19T15:12:02.361Z,86.25
2019-02-19T15:14:32.409Z,90.45
2019-02-19T15:17:17.548Z,82.92
2019-02-19T15:19:59.572Z,91.70
2019-02-19T15:22:45.750Z,91.75
2019-02-19T15:25:31.793Z,92.57
2019-02-19T15:28:10.921Z,92.00
2019-02-19T15:30:49.743Z,99.50
2019-02-19T15:33:35.973Z,95.42
2019-02-19T15:36:06.029Z,93.45
2019-02-19T15:38:38.984Z,91.00
2019-02-19T15:41:11.997Z,93.42
2019-02-19T15:43:44.768Z,89.37
2019-02-19T15:46:17.980Z,90.30
2019-02-19T15:48:48.092Z,98.90
2019-02-19T15:51:30.096Z,86.97
2019-02-19T15:54:16.401Z,92.70
2019-02-19T15:56:55.496Z,94.25
2019-02-19T15:59:28.285Z,92.82
2019-02-19T16:02:14.500Z,91.40
2019-02-19T16:04:44.545Z,92.20
2019-02-19T16:07:23.605Z,90.28
2019-02-19T16:09:59.580Z,91.25
2019-02-19T16:12:29.637Z,87.97
2019-02-19T16:15:05.688Z,93.40
2019-02-19T16:17:41.783Z,87.17
2019-02-19T16:20:14.775Z,90.67
2019-02-19T16:22:44.800Z,91.65
2019-02-19T16:25:31.411Z,83.47
2019-02-19T16:28:09.922Z,86.70
2019-02-19T16:30:48.709Z,86.80
2019-02-19T16:33:37.192Z,95.05
2019-02-19T16:36:23.498Z,91.63
2019-02-19T16:39:09.556Z,90.00
2019-02-19T16:41:39.621Z,95.47
2019-02-19T16:44:09.663Z,102.78
2019-02-19T16:46:42.820Z,93.27
2019-02-19T16:49:12.878Z,102.45
2019-02-19T16:51:42.906Z,100.85
2019-02-19T16:54:12.956Z,96.40
2019-02-19T16:56:45.789Z,93.72
2019-02-19T16:59:18.628Z,101.33
2019-02-19T17:02:00.490Z,110.40
2019-02-19T17:04:30.560Z,105.43
2019-02-19T17:07:09.617Z,106.03
2019-02-19T17:09:39.757Z,113.30
2019-02-19T17:12:09.820Z,109.78
2019-02-19T17:14:45.898Z,106.85
2019-02-19T17:17:15.945Z,110.85
2019-02-19T17:19:52.038Z,110.55
2019-02-19T17:22:24.610Z,107.03
2019-02-19T17:25:03.793Z,100.18
2019-02-19T17:27:33.816Z,99.80
2019-02-19T17:30:10.175Z,107.00
2019-02-19T17:32:45.748Z,108.42
2019-02-19T17:35:15.831Z,98.85
2019-02-19T17:37:48.576Z,105.35
2019-02-19T17:40:21.478Z,96.85
2019-02-19T17:42:54.265Z,99.35
2019-02-19T17:45:24.308Z,100.55
2019-02-19T17:48:03.672Z,101.12
2019-02-19T17:50:48.860Z,91.85
2019-02-19T17:53:18.900Z,87.35
2019-02-19T17:55:51.391Z,90.97
2019-02-19T17:58:21.428Z,85.70
2019-02-19T18:00:51.472Z,85.75
2019-02-19T18:03:33.917Z,81.25
2019-02-19T18:06:19.077Z,76.00
2019-02-19T18:08:49.128Z,78.20
2019-02-19T18:11:19.175Z,72.50
2019-02-19T18:14:05.469Z,70.08
2019-02-19T18:16:35.526Z,67.40
2019-02-19T18:19:03.917Z,71.20
2019-02-19T18:21:32.313Z,64.87
2019-02-19T18:24:00.746Z,67.80
2019-02-19T18:26:29.145Z,63.28
2019-02-19T18:28:57.553Z,60.70
2019-02-19T18:31:25.989Z,57.25
2019-02-19T18:33:54.395Z,54.93
2019-02-19T18:36:22.822Z,54.83
2019-02-19T18:38:51.232Z,53.83
2019-02-19T18:41:19.704Z,57.73
2019-02-19T18:43:48.105Z,56.02
2019-02-19T18:46:16.557Z,47.80
2019-02-19T18:48:45.082Z,48.42
2019-02-19T18:51:13.471Z,53.58
2019-02-19T18:53:41.864Z,46.08
2019-02-19T18:56:10.269Z,43.65
2019-02-19T18:58:38.680Z,45.08
2019-02-19T19:01:08.577Z,39.98
2019-02-19T19:03:37.189Z,44.38
2019-02-19T19:06:05.596Z,43.83
2019-02-19T19:08:34.025Z,41.90
2019-02-19T19:11:02.423Z,43.55
2019-02-19T19:13:30.857Z,39.67
2019-02-19T19:15:59.325Z,39.35
2019-02-19T19:18:27.726Z,38.40
2019-02-19T19:20:56.160Z,41.85
2019-02-19T19:23:24.544Z,42.98
2019-02-19T19:25:52.967Z,39.27
2019-02-19T19:28:21.357Z,38.05
2019-02-19T19:30:49.857Z,40.63
2019-02-19T19:33:18.329Z,37.35
2019-02-19T19:35:46.730Z,38.45
2019-02-19T19:38:15.157Z,37.73
2019-02-19T19:40:43.560Z,36.55
2019-02-19T19:43:11.958Z,32.95
2019-02-19T19:45:40.360Z,34.08
2019-02-19T19:48:08.756Z,35.83
2019-02-19T19:50:37.202Z,36.68
2019-02-19T19:53:05.627Z,37.28
2019-02-19T19:55:34.028Z,33.33
2019-02-19T19:58:02.453Z,35.28
2019-02-19T20:00:30.853Z,36.35
2019-02-19T20:02:59.280Z,32.80
2019-02-19T20:05:27.684Z,37.00
2019-02-19T20:07:56.088Z,34.70
2019-02-19T20:10:24.495Z,35.68
2019-02-19T20:12:52.914Z,38.65
2019-02-19T20:15:21.325Z,37.85
2019-02-19T20:17:49.723Z,32.45
2019-02-19T20:20:18.211Z,32.03
2019-02-19T20:22:46.612Z,35.03
2019-02-19T20:25:15.051Z,31.57
2019-02-19T20:27:43.463Z,31.00
2019-02-19T20:30:16.541Z,30.72
2019-02-19T20:32:44.947Z,34.40
2019-02-19T20:35:13.350Z,38.40
2019-02-19T20:37:41.743Z,33.95
2019-02-19T20:40:11.388Z,36.63
2019-02-19T20:42:39.869Z,39.05
2019-02-19T20:45:10.518Z,39.48
2019-02-19T20:47:38.954Z,34.00
2019-02-19T20:50:09.718Z,33.73
2019-02-19T20:52:38.118Z,36.28
2019-02-19T20:55:09.299Z,36.98
2019-02-19T21:00:09.752Z,39.58
2019-02-19T21:02:38.140Z,38.83
2019-02-19T21:05:09.256Z,38.38
2019-02-19T21:07:37.681Z,40.10
2019-02-19T21:10:14.420Z,39.90
2019-02-19T21:12:42.840Z,41.58
2019-02-19T21:15:11.238Z,44.90
2019-02-19T21:17:39.653Z,41.23
2019-02-19T21:20:09.937Z,39.55
2019-02-19T21:22:38.336Z,41.17
2019-02-19T21:25:08.473Z,37.00
2019-02-19T21:27:36.904Z,40.85
2019-02-19T21:30:15.660Z,42.88
2019-02-19T21:32:44.101Z,46.55
2019-02-19T21:35:12.503Z,39.53
2019-02-19T21:37:40.997Z,45.15
2019-02-19T21:40:16.256Z,42.40
2019-02-19T21:42:44.650Z,40.38
2019-02-19T21:45:14.096Z,43.50
2019-02-19T21:47:42.517Z,41.18
2019-02-19T21:50:12.220Z,44.73
2019-02-19T21:52:40.694Z,41.60
2019-02-19T21:55:10.485Z,39.38
2019-02-19T21:57:38.885Z,43.80
2019-02-19T22:00:10.094Z,36.38
2019-02-19T22:05:07.264Z,38.58
2019-02-19T22:07:35.670Z,41.63
2019-02-19T22:10:06.662Z,35.35
2019-02-19T22:12:35.060Z,38.92
2019-02-19T22:15:03.952Z,39.55
2019-02-19T22:17:32.424Z,39.75
2019-02-19T22:20:03.218Z,45.80
2019-02-19T22:22:30.969Z,34.90
2019-02-19T22:24:59.372Z,35.92
2019-02-19T22:27:27.820Z,33.33
2019-02-19T22:29:56.200Z,39.00
2019-02-19T22:32:24.689Z,41.10
2019-02-19T22:34:53.089Z,42.35
2019-02-19T22:37:21.502Z,43.35
2019-02-19T22:39:49.932Z,40.20
2019-02-19T22:42:18.342Z,35.98
2019-02-19T22:44:46.804Z,38.67
2019-02-19T22:47:15.257Z,38.05
2019-02-19T22:49:43.662Z,41.37
2019-02-19T22:52:12.750Z,35.98
2019-02-19T22:54:42.946Z,37.45
2019-02-19T22:57:11.361Z,28.10
2019-02-19T22:59:39.775Z,34.20
2019-02-19T23:02:20.336Z,37.80
2019-02-19T23:04:48.821Z,35.17
2019-02-19T23:07:17.222Z,32.40
2019-02-19T23:09:45.722Z,30.82
2019-02-19T23:12:14.116Z,27.07
2019-02-19T23:14:42.524Z,34.90
2019-02-19T23:17:10.924Z,27.05
2019-02-19T23:19:39.333Z,27.95
2019-02-19T23:22:07.772Z,27.73
2019-02-19T23:24:36.152Z,31.60
2019-02-19T23:27:04.567Z,26.05
2019-02-19T23:29:32.954Z,29.60
2019-02-19T23:32:01.390Z,25.32
2019-02-19T23:34:29.817Z,31.48
2019-02-19T23:36:59.784Z,27.87
2019-02-19T23:39:28.188Z,24.37
2019-02-19T23:41:56.598Z,24.57
2019-02-19T23:44:25.007Z,21.95
2019-02-19T23:46:53.428Z,24.90
2019-02-19T23:49:21.839Z,23.00
2019-02-19T23:51:50.237Z,20.85
2019-02-19T23:54:18.636Z,20.88
2019-02-19T23:56:47.953Z,19.73
2019-02-19T23:59:16.401Z,17.87
